createdAt,value
2023-01-27T00:02:07.953Z,71.30
2023-01-27T00:04:36.513Z,71.70
2023-01-27T00:07:23.455Z,71.70
2023-01-27T00:09:52.499Z,71.80
2023-01-27T00:12:45.092Z,71.50
2023-01-27T00:15:20.285Z,71.70
2023-01-27T00:17:55.179Z,71.70
2023-01-27T00:20:38.994Z,71.40
2023-01-27T00:23:34.978Z,71.70
2023-01-27T00:26:06.785Z,71.60
2023-01-27T00:28:38.133Z,71.50
2023-01-27T00:31:32.782Z,71.40
2023-01-27T00:34:09.592Z,71.70
2023-01-27T00:36:39.920Z,71.80
2023-01-27T00:42:16.704Z,71.60
2023-01-27T00:45:09.357Z,71.40
2023-01-27T00:47:39.218Z,71.60
2023-01-27T00:50:10.674Z,71.70
2023-01-27T00:52:41.265Z,71.60
2023-01-27T00:55:20.864Z,72.00
2023-01-27T00:57:49.404Z,71.70
2023-01-27T01:00:20.413Z,71.50
2023-01-27T01:02:51.631Z,71.70
2023-01-27T01:05:36.335Z,71.60
2023-01-27T01:08:11.351Z,71.80
2023-01-27T01:10:49.172Z,72.10
2023-01-27T01:13:33.947Z,71.80
2023-01-27T01:16:43.906Z,71.90
2023-01-27T01:19:13.329Z,71.60
2023-01-27T01:21:45.849Z,71.90
2023-01-27T01:24:20.464Z,71.80
2023-01-27T01:26:48.940Z,71.80
2023-01-27T01:29:18.363Z,71.70
2023-01-27T01:31:56.263Z,71.80
2023-01-27T01:34:27.036Z,71.50
2023-01-27T01:36:58.327Z,71.30
2023-01-27T01:39:26.971Z,71.40
2023-01-27T01:41:56.081Z,71.50
2023-01-27T01:44:32.824Z,71.40
2023-01-27T01:47:06.207Z,71.60
2023-01-27T01:49:43.908Z,71.30
2023-01-27T01:52:21.816Z,71.20
2023-01-27T01:54:58.964Z,71.30
2023-01-27T01:57:41.058Z,71.30
2023-01-27T02:00:35.291Z,71.60
2023-01-27T02:03:12.942Z,71.40
2023-01-27T02:05:49.384Z,71.20
2023-01-27T02:08:23.200Z,72.00
2023-01-27T02:10:54.665Z,71.20
2023-01-27T02:13:23.646Z,70.80
2023-01-27T02:15:55.913Z,70.80
2023-01-27T02:18:27.589Z,70.70
2023-01-27T02:20:59.529Z,70.90
2023-01-27T02:23:51.005Z,71.10
2023-01-27T02:26:23.500Z,70.90
2023-01-27T02:29:00.042Z,71.20
2023-01-27T02:31:31.812Z,71.00
2023-01-27T02:34:06.405Z,71.50
2023-01-27T02:36:38.865Z,71.20
2023-01-27T02:39:14.261Z,71.10
2023-01-27T02:41:51.707Z,71.20
2023-01-27T02:44:22.193Z,71.30
2023-01-27T02:46:51.145Z,71.40
2023-01-27T02:49:22.684Z,71.30
2023-01-27T02:52:05.224Z,71.30
2023-01-27T02:54:35.077Z,71.20
2023-01-27T02:57:06.149Z,71.10
2023-01-27T02:59:41.968Z,71.20
2023-01-27T03:02:14.923Z,71.40
2023-01-27T03:04:43.951Z,71.50
2023-01-27T03:07:13.060Z,71.20
2023-01-27T03:09:41.606Z,71.30
2023-01-27T03:12:31.455Z,71.30
2023-01-27T03:15:17.833Z,71.30
2023-01-27T03:18:03.751Z,71.60
2023-01-27T03:20:32.330Z,71.30
2023-01-27T03:23:01.016Z,71.50
2023-01-27T03:25:29.711Z,71.80
2023-01-27T03:28:00.264Z,72.50
2023-01-27T03:30:36.914Z,71.70
2023-01-27T03:33:16.122Z,71.70
2023-01-27T03:36:16.981Z,71.80
2023-01-27T03:39:06.753Z,71.70
2023-01-27T03:41:53.526Z,71.90
2023-01-27T03:44:42.507Z,71.80
2023-01-27T03:47:11.476Z,72.00
2023-01-27T03:49:40.191Z,72.00
2023-01-27T03:52:15.030Z,71.80
2023-01-27T03:54:47.212Z,71.70
2023-01-27T03:57:17.051Z,73.00
2023-01-27T03:59:49.401Z,72.10
2023-01-27T04:02:41.845Z,72.10
2023-01-27T04:05:33.364Z,71.90
2023-01-27T04:08:02.166Z,71.80
2023-01-27T04:10:31.218Z,72.00
2023-01-27T04:12:58.937Z,71.80
2023-01-27T04:15:29.815Z,72.00
2023-01-27T04:17:58.339Z,71.90
2023-01-27T04:20:26.937Z,72.00
2023-01-27T04:22:56.242Z,72.10
2023-01-27T04:25:30.575Z,72.10
2023-01-27T04:28:25.667Z,72.30
2023-01-27T04:31:25.646Z,72.30
2023-01-27T04:33:56.830Z,72.00
2023-01-27T04:36:25.370Z,71.90
2023-01-27T04:38:56.475Z,71.90
2023-01-27T04:41:25.454Z,72.00
2023-01-27T04:43:54.413Z,71.80
2023-01-27T04:46:25.214Z,71.90
2023-01-27T04:48:54.155Z,71.90
2023-01-27T04:51:29.252Z,71.90
2023-01-27T04:54:14.223Z,72.20
2023-01-27T04:56:51.880Z,72.40
2023-01-27T05:02:34.000Z,71.90
2023-01-27T05:05:09.408Z,72.10
2023-01-27T05:07:53.282Z,72.30
2023-01-27T05:10:36.521Z,72.80
2023-01-27T05:13:18.372Z,73.00
2023-01-27T05:15:59.213Z,72.70
2023-01-27T05:18:51.805Z,72.30
2023-01-27T05:21:37.103Z,72.40
2023-01-27T05:24:23.882Z,72.40
2023-01-27T05:27:22.907Z,72.60
2023-01-27T05:30:07.238Z,72.50
2023-01-27T05:32:42.472Z,73.20
2023-01-27T05:35:26.031Z,73.30
2023-01-27T05:38:12.120Z,73.20
2023-01-27T05:40:56.258Z,73.60
2023-01-27T05:43:55.152Z,73.40
2023-01-27T05:46:55.347Z,73.30
2023-01-27T05:49:37.381Z,73.50
2023-01-27T05:55:31.894Z,73.50
2023-01-27T05:58:21.663Z,73.10
2023-01-27T06:01:01.400Z,73.20
2023-01-27T06:03:39.405Z,73.10
2023-01-27T06:06:19.702Z,73.00
2023-01-27T06:09:05.767Z,72.80
2023-01-27T06:11:50.711Z,73.00
2023-01-27T06:14:26.977Z,73.40
2023-01-27T06:16:55.584Z,73.30
2023-01-27T06:19:42.175Z,73.10
2023-01-27T06:22:13.096Z,73.20
2023-01-27T06:24:49.402Z,73.40
2023-01-27T06:27:17.845Z,73.50
2023-01-27T06:29:46.461Z,73.50
2023-01-27T06:32:23.503Z,74.00
2023-01-27T06:35:03.661Z,72.90
2023-01-27T06:37:43.032Z,73.00
2023-01-27T06:40:24.935Z,73.30
2023-01-27T06:43:17.094Z,73.20
2023-01-27T06:46:07.282Z,73.00
2023-01-27T06:49:02.890Z,73.20
2023-01-27T06:51:50.858Z,73.00
2023-01-27T06:54:27.339Z,73.00
2023-01-27T06:57:07.679Z,73.40
2023-01-27T06:59:49.060Z,73.10
2023-01-27T07:02:25.665Z,73.00
2023-01-27T07:05:01.400Z,73.30
2023-01-27T07:07:51.799Z,73.30
2023-01-27T07:10:39.414Z,73.10
2023-01-27T07:13:13.631Z,72.90
2023-01-27T07:15:51.445Z,73.00
2023-01-27T07:18:23.718Z,72.90
2023-01-27T07:21:06.672Z,72.80
2023-01-27T07:23:58.303Z,73.00
2023-01-27T07:27:08.413Z,73.70
2023-01-27T07:30:05.643Z,73.00
2023-01-27T07:32:59.202Z,72.70
2023-01-27T07:35:27.772Z,72.40
2023-01-27T07:38:08.244Z,72.70
2023-01-27T07:40:45.200Z,72.90
2023-01-27T07:43:25.399Z,72.40
2023-01-27T07:46:03.089Z,72.70
2023-01-27T07:48:38.998Z,72.50
2023-01-27T07:51:07.952Z,72.20
2023-01-27T07:53:36.351Z,72.50
2023-01-27T07:56:15.446Z,72.90
2023-01-27T07:58:57.975Z,72.70
2023-01-27T08:02:09.625Z,73.10
2023-01-27T08:04:52.884Z,72.60
2023-01-27T08:07:23.723Z,73.10
2023-01-27T08:10:05.108Z,72.50
2023-01-27T08:12:43.037Z,72.40
2023-01-27T08:15:26.086Z,72.50
2023-01-27T08:18:10.907Z,72.50
2023-01-27T08:21:02.524Z,72.30
2023-01-27T08:23:43.610Z,72.30
2023-01-27T08:27:04.344Z,72.20
2023-01-27T08:29:42.500Z,72.20
2023-01-27T08:32:41.968Z,72.50
2023-01-27T08:35:25.326Z,72.10
2023-01-27T08:38:04.348Z,72.40
2023-01-27T08:40:55.382Z,72.20
2023-01-27T08:43:42.934Z,72.40
2023-01-27T08:46:23.320Z,72.50
2023-01-27T08:49:13.311Z,72.20
2023-01-27T08:52:03.717Z,72.40
2023-01-27T08:54:34.777Z,72.20
2023-01-27T08:57:03.360Z,71.80
2023-01-27T08:59:31.699Z,71.70
2023-01-27T09:01:59.923Z,71.80
2023-01-27T09:04:29.257Z,72.20
2023-01-27T09:06:59.319Z,71.80
2023-01-27T09:09:34.668Z,71.80
2023-01-27T09:12:03.240Z,71.80
2023-01-27T09:14:31.545Z,71.80
2023-01-27T09:17:22.956Z,72.10
2023-01-27T09:19:51.288Z,71.80
2023-01-27T09:22:23.553Z,72.10
2023-01-27T09:25:07.792Z,72.20
2023-01-27T09:27:43.158Z,71.90
2023-01-27T09:30:15.072Z,72.00
2023-01-27T09:32:51.471Z,71.80
2023-01-27T09:35:22.183Z,71.60
2023-01-27T09:38:00.700Z,71.90
2023-01-27T09:41:07.063Z,72.00
2023-01-27T09:44:07.575Z,71.90
2023-01-27T09:47:25.984Z,71.50
2023-01-27T09:50:08.695Z,71.40
2023-01-27T09:53:15.662Z,71.50
2023-01-27T09:56:00.673Z,71.70
2023-01-27T09:59:00.561Z,71.40
2023-01-27T10:01:50.703Z,71.40
2023-01-27T10:04:59.365Z,71.30
2023-01-27T10:08:06.165Z,71.20
2023-01-27T10:11:18.603Z,71.10
2023-01-27T10:14:08.959Z,71.30
2023-01-27T10:17:15.448Z,71.40
2023-01-27T10:20:17.056Z,71.60
2023-01-27T10:23:21.602Z,71.30
2023-01-27T10:26:08.999Z,71.60
2023-01-27T10:28:59.919Z,71.30
2023-01-27T10:31:38.197Z,71.30
2023-01-27T10:34:28.478Z,71.20
2023-01-27T10:37:06.314Z,71.00
2023-01-27T10:39:44.869Z,71.20
2023-01-27T10:42:28.594Z,71.20
2023-01-27T10:45:25.260Z,71.20
2023-01-27T10:48:42.112Z,71.40
2023-01-27T10:51:17.995Z,71.50
2023-01-27T10:54:00.381Z,71.50
2023-01-27T10:56:39.567Z,71.80
2023-01-27T10:59:19.247Z,71.60
2023-01-27T11:02:16.835Z,71.40
2023-01-27T11:05:02.579Z,71.60
2023-01-27T11:07:51.405Z,71.20
2023-01-27T11:10:59.362Z,71.70
2023-01-27T11:13:43.719Z,71.20
2023-01-27T11:16:29.710Z,71.50
2023-01-27T11:19:19.540Z,71.60
2023-01-27T11:22:08.230Z,71.10
2023-01-27T11:24:50.765Z,72.50
2023-01-27T11:27:42.212Z,71.60
2023-01-27T11:30:25.167Z,71.50
2023-01-27T11:33:08.361Z,71.70
2023-01-27T11:35:42.094Z,71.70
2023-01-27T11:38:24.015Z,72.00
2023-01-27T11:40:59.907Z,71.50
2023-01-27T11:44:02.219Z,71.80
2023-01-27T11:46:40.397Z,71.20
2023-01-27T11:49:21.383Z,71.70
2023-01-27T11:51:50.597Z,72.10
2023-01-27T11:54:42.623Z,72.00
2023-01-27T11:57:22.624Z,72.00
2023-01-27T12:00:00.184Z,72.00
2023-01-27T12:10:29.373Z,71.70
2023-01-27T12:13:11.928Z,71.90
2023-01-27T12:15:52.719Z,71.80
2023-01-27T12:18:30.630Z,72.20
2023-01-27T12:21:31.560Z,72.20
2023-01-27T12:24:24.098Z,71.80
2023-01-27T12:27:10.494Z,71.90
2023-01-27T12:29:47.306Z,71.70
2023-01-27T12:32:23.957Z,72.20
2023-01-27T12:35:00.926Z,72.10
2023-01-27T12:37:41.193Z,72.40
2023-01-27T12:40:37.027Z,72.50
2023-01-27T12:43:16.618Z,72.30
2023-01-27T12:45:47.356Z,72.10
2023-01-27T12:48:25.298Z,72.30
2023-01-27T12:51:16.219Z,72.30
2023-01-27T12:54:03.145Z,72.10
2023-01-27T12:56:41.263Z,72.30
2023-01-27T12:59:39.175Z,72.60
2023-01-27T13:02:32.345Z,72.40
2023-01-27T13:05:09.517Z,72.60
2023-01-27T13:07:45.044Z,72.20
2023-01-27T13:10:23.962Z,72.30
2023-01-27T13:12:56.984Z,72.20
2023-01-27T13:15:41.474Z,72.00
2023-01-27T13:18:39.094Z,71.90
2023-01-27T13:21:16.465Z,72.00
2023-01-27T13:23:48.210Z,72.10
2023-01-27T13:26:27.352Z,72.20
2023-01-27T13:29:01.509Z,72.00
2023-01-27T13:31:46.148Z,71.80
2023-01-27T13:34:26.973Z,71.90
2023-01-27T13:37:11.667Z,71.70
2023-01-27T13:39:58.750Z,72.20
2023-01-27T13:42:48.798Z,71.90
2023-01-27T13:45:23.441Z,72.00
2023-01-27T13:48:06.706Z,71.70
2023-01-27T13:50:44.197Z,71.90
2023-01-27T13:53:19.238Z,72.10
2023-01-27T13:56:13.096Z,72.20
2023-01-27T13:58:55.194Z,72.00
2023-01-27T14:01:31.853Z,72.20
2023-01-27T14:04:25.783Z,72.30
2023-01-27T14:07:10.014Z,72.10
2023-01-27T14:11:04.511Z,71.80
2023-01-27T14:14:57.459Z,71.70
2023-01-27T14:21:34.693Z,71.90
2023-01-27T14:43:55.497Z,72.10
2023-01-27T14:50:38.467Z,72.30
2023-01-27T14:57:56.131Z,72.40
2023-01-27T15:00:47.726Z,72.60
2023-01-27T15:03:56.045Z,72.90
2023-01-27T15:48:34.591Z,72.70
2023-01-27T16:44:51.161Z,72.90
2023-01-27T16:55:44.937Z,73.10
2023-01-27T17:13:20.500Z,72.80
2023-01-27T17:15:58.608Z,73.00
2023-01-27T17:23:05.913Z,72.40
2023-01-27T17:30:07.706Z,72.30
2023-01-27T17:33:17.831Z,72.30
2023-01-27T17:40:15.243Z,72.70
2023-01-27T17:47:00.873Z,72.10
2023-01-27T17:50:14.165Z,71.90
2023-01-27T18:00:49.933Z,71.90
2023-01-27T18:07:41.661Z,72.20
2023-01-27T18:13:05.851Z,71.90
2023-01-27T18:25:51.351Z,72.00
2023-01-27T18:31:57.841Z,71.80
2023-01-27T18:38:51.325Z,72.00
2023-01-27T18:41:48.635Z,71.60
2023-01-27T18:44:42.624Z,71.60
2023-01-27T18:47:31.858Z,72.10
2023-01-27T18:50:15.331Z,71.60
2023-01-27T18:52:46.686Z,71.50
2023-01-27T18:55:20.590Z,72.00
2023-01-27T18:57:53.635Z,71.70
2023-01-27T19:00:27.270Z,71.90
2023-01-27T19:03:01.420Z,72.00
2023-01-27T19:12:24.502Z,71.80
2023-01-27T19:14:59.307Z,71.70
2023-01-27T19:17:46.579Z,72.20
2023-01-27T19:24:10.714Z,72.10
2023-01-27T19:27:15.215Z,72.20
2023-01-27T19:32:58.152Z,72.00
2023-01-27T19:35:45.907Z,71.90
2023-01-27T19:38:24.583Z,71.90
2023-01-27T19:40:53.422Z,71.90
2023-01-27T19:43:33.738Z,71.90
2023-01-27T19:46:03.394Z,71.70
2023-01-27T19:48:45.688Z,71.70
2023-01-27T19:51:14.180Z,71.90
2023-01-27T19:53:59.906Z,71.70
2023-01-27T19:56:34.946Z,71.70
2023-01-27T19:59:04.024Z,71.70
2023-01-27T20:01:32.528Z,71.80
2023-01-27T20:04:05.330Z,71.70
2023-01-27T20:06:40.952Z,71.70
2023-01-27T20:09:17.166Z,71.70
2023-01-27T20:11:52.908Z,71.60
2023-01-27T20:14:25.840Z,71.80
2023-01-27T20:16:54.378Z,71.90
2023-01-27T20:19:26.054Z,72.00
2023-01-27T20:26:40.951Z,72.00
2023-01-27T20:32:17.973Z,71.80
2023-01-27T22:51:20.914Z,71.80
2023-01-27T22:57:42.177Z,71.80
2023-01-27T23:33:57.203Z,72.30
